createdAt,value
2023-07-19T00:00:56.373Z,98807.13
2023-07-19T00:06:15.538Z,98805.26
2023-07-19T00:11:19.225Z,98799.56
2023-07-19T00:16:22.866Z,98799.13
2023-07-19T00:21:25.884Z,98790.14
2023-07-19T00:26:29.153Z,98785.40
2023-07-19T00:31:32.659Z,98775.63
2023-07-19T00:36:36.147Z,98767.03
2023-07-19T00:41:45.563Z,98761.27
2023-07-19T00:46:48.796Z,98747.23
2023-07-19T00:51:52.053Z,98751.35
2023-07-19T01:02:07.159Z,98735.42
2023-07-19T01:07:10.345Z,98727.95
2023-07-19T01:12:13.489Z,98725.84
2023-07-19T01:17:16.818Z,98718.48
2023-07-19T01:22:20.210Z,98712.13
2023-07-19T01:27:24.211Z,98711.29
2023-07-19T01:32:27.359Z,98709.73
2023-07-19T01:37:30.468Z,98701.33
2023-07-19T01:42:33.764Z,98697.05
2023-07-19T01:47:37.193Z,98691.45
2023-07-19T01:52:41.742Z,98689.55
2023-07-19T01:57:44.890Z,98687.28
2023-07-19T02:02:48.167Z,98687.59
2023-07-19T02:07:51.611Z,98684.62
2023-07-19T02:12:54.895Z,98680.05
2023-07-19T02:17:58.213Z,98679.55
2023-07-19T02:23:01.424Z,98684.59
2023-07-19T02:28:05.065Z,98683.36
2023-07-19T02:33:08.258Z,98674.78
2023-07-19T02:38:11.594Z,98672.13
2023-07-19T02:43:15.120Z,98674.24
2023-07-19T02:48:18.441Z,98668.77
2023-07-19T02:53:25.609Z,98673.00
2023-07-19T02:58:30.373Z,98667.20
2023-07-19T03:03:33.888Z,98665.36
2023-07-19T03:08:37.773Z,98664.84
2023-07-19T03:13:41.146Z,98663.01
2023-07-19T03:18:44.540Z,98668.65
2023-07-19T03:23:48.201Z,98673.08
2023-07-19T03:28:51.428Z,98667.85
2023-07-19T03:33:54.636Z,98667.23
2023-07-19T03:38:59.479Z,98665.70
2023-07-19T03:44:03.112Z,98656.27
2023-07-19T03:49:06.824Z,98646.11
2023-07-19T03:54:09.983Z,98644.89
2023-07-19T03:59:13.973Z,98642.87
2023-07-19T04:04:17.775Z,98639.71
2023-07-19T04:09:20.947Z,98640.95
2023-07-19T04:14:24.284Z,98641.73
2023-07-19T04:19:27.536Z,98644.31
2023-07-19T04:24:30.876Z,98644.20
2023-07-19T04:29:34.331Z,98645.52
2023-07-19T04:34:37.885Z,98644.58
2023-07-19T04:39:41.364Z,98638.61
2023-07-19T04:44:44.763Z,98632.27
2023-07-19T04:49:48.280Z,98634.84
2023-07-19T04:54:51.765Z,98644.55
2023-07-19T04:59:54.960Z,98649.30
2023-07-19T05:04:58.240Z,98648.16
2023-07-19T05:10:01.874Z,98647.53
2023-07-19T05:15:06.064Z,98647.27
2023-07-19T05:20:10.466Z,98642.25
2023-07-19T05:25:14.697Z,98639.83
2023-07-19T05:30:17.877Z,98638.06
2023-07-19T05:35:21.074Z,98637.26
2023-07-19T05:40:24.245Z,98637.08
2023-07-19T05:45:27.485Z,98632.23
2023-07-19T05:50:30.719Z,98627.20
2023-07-19T05:55:33.834Z,98617.23
2023-07-19T06:00:37.018Z,98612.20
2023-07-19T06:05:40.172Z,98612.46
2023-07-19T06:10:43.905Z,98609.36
2023-07-19T06:15:47.310Z,98608.39
2023-07-19T06:20:53.089Z,98607.41
2023-07-19T06:25:57.762Z,98604.16
2023-07-19T06:31:01.291Z,98597.55
2023-07-19T06:36:04.914Z,98601.64
2023-07-19T06:41:08.459Z,98600.34
2023-07-19T06:46:11.740Z,98601.08
2023-07-19T06:51:15.538Z,98596.80
2023-07-19T06:56:21.001Z,98587.80
2023-07-19T07:01:24.431Z,98585.05
2023-07-19T07:06:28.568Z,98579.30
2023-07-19T07:11:31.758Z,98574.30
2023-07-19T07:16:34.932Z,98565.95
2023-07-19T07:21:38.328Z,98568.85
2023-07-19T07:26:42.039Z,98566.10
2023-07-19T07:31:45.221Z,98563.67
2023-07-19T07:36:48.348Z,98558.08
2023-07-19T07:41:51.439Z,98556.62
2023-07-19T07:46:54.573Z,98553.17
2023-07-19T07:51:57.692Z,98548.45
2023-07-19T07:57:01.820Z,98548.85
2023-07-19T08:02:06.474Z,98555.53
2023-07-19T08:07:09.881Z,98557.40
2023-07-19T08:12:15.203Z,98548.34
2023-07-19T08:17:18.336Z,98547.84
2023-07-19T08:22:27.205Z,98542.54
2023-07-19T08:27:30.366Z,98533.98
2023-07-19T08:32:35.258Z,98530.02
2023-07-19T08:37:40.515Z,98521.77
2023-07-19T08:42:44.872Z,98518.15
2023-07-19T08:47:50.247Z,98512.06
2023-07-19T08:52:53.389Z,98505.89
2023-07-19T08:57:56.649Z,98494.38
2023-07-19T09:02:59.781Z,98492.95
2023-07-19T09:08:03.894Z,98493.95
2023-07-19T09:13:07.560Z,98490.31
2023-07-19T09:18:11.858Z,98481.54
2023-07-19T09:23:18.125Z,98474.63
2023-07-19T09:28:23.216Z,98479.52
2023-07-19T09:33:29.987Z,98476.69
2023-07-19T09:38:33.247Z,98467.74
2023-07-19T09:43:37.175Z,98465.34
2023-07-19T09:48:40.309Z,98456.71
2023-07-19T09:53:45.033Z,98456.66
2023-07-19T09:58:48.683Z,98450.50
2023-07-19T10:03:51.869Z,98447.92
2023-07-19T10:09:24.187Z,98439.57
2023-07-19T10:14:34.330Z,98434.66
2023-07-19T10:19:38.030Z,98427.83
2023-07-19T10:29:02.742Z,98415.17
2023-07-19T10:34:05.945Z,98416.11
2023-07-19T10:39:09.179Z,98407.78
2023-07-19T10:44:13.221Z,98404.33
2023-07-19T10:49:16.695Z,98400.80
2023-07-19T10:54:22.944Z,98394.40
2023-07-19T10:59:26.706Z,98390.71
2023-07-19T11:04:30.729Z,98390.67
2023-07-19T11:09:34.620Z,98393.63
2023-07-19T11:14:44.178Z,98388.55
2023-07-19T11:19:47.417Z,98378.03
2023-07-19T11:24:51.869Z,98373.73
2023-07-19T11:29:56.344Z,98366.50
2023-07-19T11:35:01.669Z,98359.60
2023-07-19T11:40:11.070Z,98354.00
2023-07-19T11:45:14.623Z,98339.70
2023-07-19T11:50:17.901Z,98342.30
2023-07-19T11:55:22.270Z,98343.27
2023-07-19T12:00:25.579Z,98328.89
2023-07-19T12:05:29.819Z,98328.23
2023-07-19T12:10:33.478Z,98328.36
2023-07-19T12:15:36.659Z,98325.30
2023-07-19T12:20:39.887Z,98313.38
2023-07-19T12:25:44.435Z,98313.05
2023-07-19T12:30:47.724Z,98304.14
2023-07-19T12:35:50.890Z,98296.89
2023-07-19T12:40:54.702Z,98292.94
2023-07-19T12:45:58.043Z,98291.58
2023-07-19T12:51:03.875Z,98288.27
2023-07-19T12:56:08.256Z,98277.59
2023-07-19T13:01:13.676Z,98273.94
2023-07-19T13:06:18.333Z,98273.92
2023-07-19T13:11:21.614Z,98265.00
2023-07-19T13:16:25.170Z,98263.42
2023-07-19T13:21:29.002Z,98260.09
2023-07-19T13:26:32.459Z,98261.14
2023-07-19T13:31:47.302Z,98253.29
2023-07-19T13:36:54.258Z,98242.86
2023-07-19T13:41:58.341Z,98236.43
2023-07-19T13:47:03.740Z,98236.49
2023-07-19T13:52:07.514Z,98229.23
2023-07-19T14:02:07.580Z,98225.11
2023-07-19T14:07:11.411Z,98223.91
2023-07-19T14:12:15.936Z,98225.01
2023-07-19T14:17:19.231Z,98220.12
2023-07-19T14:22:22.498Z,98217.92
2023-07-19T14:27:25.681Z,98219.73
2023-07-19T14:32:31.401Z,98217.29
2023-07-19T14:37:35.056Z,98208.16
2023-07-19T14:42:38.898Z,98201.94
2023-07-19T14:47:48.042Z,98202.79
2023-07-19T14:53:08.324Z,98196.20
2023-07-19T15:07:23.050Z,98193.42
2023-07-19T15:12:26.696Z,98181.09
2023-07-19T15:17:31.454Z,98178.41
2023-07-19T15:22:35.535Z,98170.73
2023-07-19T15:27:38.848Z,98180.95
2023-07-19T15:32:42.727Z,98177.48
2023-07-19T15:37:46.334Z,98173.45
2023-07-19T15:42:49.583Z,98169.23
2023-07-19T15:47:53.157Z,98172.09
2023-07-19T15:53:00.510Z,98178.18
2023-07-19T15:58:03.894Z,98180.33
2023-07-19T16:03:07.191Z,98178.58
2023-07-19T16:08:11.270Z,98187.15
2023-07-19T16:13:14.523Z,98197.12
2023-07-19T16:18:17.677Z,98196.34
2023-07-19T16:23:20.899Z,98200.75
2023-07-19T16:28:24.324Z,98197.05
2023-07-19T16:33:27.668Z,98193.38
2023-07-19T16:38:31.039Z,98192.50
2023-07-19T16:43:34.201Z,98186.04
2023-07-19T16:48:37.730Z,98191.58
2023-07-19T16:53:40.901Z,98188.16
2023-07-19T16:58:44.346Z,98189.90
2023-07-19T17:03:47.648Z,98188.42
2023-07-19T17:08:51.373Z,98197.83
2023-07-19T17:13:54.894Z,98196.67
2023-07-19T17:19:09.925Z,98201.69
2023-07-19T17:24:21.392Z,98200.59
2023-07-19T17:29:24.549Z,98203.67
2023-07-19T17:34:27.912Z,98201.25
2023-07-19T17:39:31.363Z,98200.70
2023-07-19T17:44:36.572Z,98207.84
2023-07-19T17:49:40.010Z,98203.70
2023-07-19T17:54:43.227Z,98206.99
2023-07-19T17:59:46.510Z,98205.63
2023-07-19T18:04:54.598Z,98202.64
2023-07-19T18:09:57.728Z,98210.41
2023-07-19T18:15:20.512Z,98203.39
2023-07-19T18:20:23.824Z,98206.75
2023-07-19T18:25:27.050Z,98203.13
2023-07-19T18:30:30.267Z,98207.87
2023-07-19T18:35:33.449Z,98208.81
2023-07-19T18:40:36.655Z,98209.73
2023-07-19T18:45:39.860Z,98209.61
2023-07-19T18:50:44.304Z,98202.69
2023-07-19T18:55:47.541Z,98208.67
2023-07-19T19:00:50.801Z,98213.52
2023-07-19T19:05:54.240Z,98213.77
2023-07-19T19:10:57.911Z,98214.86
2023-07-19T19:16:01.169Z,98223.65
2023-07-19T19:21:04.526Z,98227.55
2023-07-19T19:26:07.727Z,98233.58
2023-07-19T19:31:11.473Z,98236.50
2023-07-19T19:36:14.928Z,98243.46
2023-07-19T19:41:18.133Z,98244.35
2023-07-19T19:46:21.335Z,98251.40
2023-07-19T19:51:24.734Z,98248.55
2023-07-19T19:56:31.955Z,98250.35
2023-07-19T20:01:36.031Z,98245.88
2023-07-19T20:06:39.553Z,98240.45
2023-07-19T20:11:46.990Z,98244.83
2023-07-19T20:16:51.530Z,98251.47
2023-07-19T20:21:55.043Z,98251.30
2023-07-19T20:26:59.081Z,98250.60
2023-07-19T20:32:02.684Z,98254.50
2023-07-19T20:42:12.247Z,98255.27
2023-07-19T20:47:16.866Z,98252.08
2023-07-19T20:52:21.573Z,98248.22
2023-07-19T20:57:24.858Z,98243.02
2023-07-19T21:02:28.025Z,98241.69
2023-07-19T21:07:31.539Z,98237.13
2023-07-19T21:12:34.944Z,98238.13
2023-07-19T21:17:40.397Z,98241.02
2023-07-19T21:22:44.945Z,98235.92
2023-07-19T21:27:48.114Z,98244.33
2023-07-19T21:32:51.378Z,98243.40
2023-07-19T21:37:54.429Z,98243.86
2023-07-19T21:42:57.748Z,98241.92
2023-07-19T21:48:01.795Z,98246.20
2023-07-19T21:53:04.911Z,98242.66
2023-07-19T21:58:08.019Z,98247.02
2023-07-19T22:03:13.175Z,98248.61
2023-07-19T22:08:16.753Z,98253.46
2023-07-19T22:13:20.036Z,98253.96
2023-07-19T22:18:27.284Z,98264.38
2023-07-19T22:23:30.734Z,98266.13
2023-07-19T22:28:37.457Z,98271.56
2023-07-19T22:33:40.772Z,98280.90
2023-07-19T22:38:43.915Z,98303.41
2023-07-19T22:43:47.356Z,98317.27
2023-07-19T22:48:50.752Z,98301.17
2023-07-19T22:53:54.185Z,98277.30
2023-07-19T22:58:57.541Z,98278.35
2023-07-19T23:04:00.842Z,98279.73
2023-07-19T23:09:06.176Z,98277.92
2023-07-19T23:14:10.658Z,98268.73
2023-07-19T23:19:13.803Z,98256.99
2023-07-19T23:24:17.824Z,98252.58
2023-07-19T23:29:25.930Z,98253.41
2023-07-19T23:34:30.192Z,98244.16
2023-07-19T23:39:33.742Z,98238.08
2023-07-19T23:44:40.623Z,98230.23
2023-07-19T23:49:44.266Z,98223.03
2023-07-19T23:54:47.550Z,98218.38
2023-07-19T23:59:51.059Z,98220.02
